Time;durP1;ratioP1;P1;durP2;ratioP2;P2;SDS_P1;SDS_P2;PMS_P1;PMS_P2;Temp;Humidity;BMP_temperature;BMP_pressure;BME280_temperature;BME280_humidity;BME280_pressure;Samples;Min_cycle;Max_cycle;Signal;HPM_P1;HPM_P2
2021/08/12 00:00:15;;;;;;;8.2;5.3;;;;;;;15.83;100;99033.83;;;;
2021/08/12 00:10:14;;;;;;;9.4;5.3;;;;;;;15.75;100;99044.77;;;;
2021/08/12 00:20:14;;;;;;;8.1;5.4;;;;;;;15.57;100;99052.23;;;;
2021/08/12 00:30:13;;;;;;;14.1;6.9;;;;;;;15.45;100;99065.67;;;;
2021/08/12 00:40:12;;;;;;;6.9;4.1;;;;;;;15.27;100;99061.47;;;;
2021/08/12 00:50:12;;;;;;;8.2;4.4;;;;;;;15.03;100;99062.82;;;;
2021/08/12 01:00:12;;;;;;;10.8;5.2;;;;;;;14.82;100;99063.87;;;;
2021/08/12 01:10:13;;;;;;;8;4.2;;;;;;;14.72;100;99072.33;;;;
2021/08/12 01:20:27;;;;;;;6.2;4.2;;;;;;;14.58;100;99072.51;;;;
2021/08/12 01:30:13;;;;;;;8.1;4.4;;;;;;;14.52;100;99076.52;;;;
2021/08/12 01:40:08;;;;;;;12;4.6;;;;;;;14.45;100;99077;;;;
2021/08/12 01:50:08;;;;;;;12.9;5.7;;;;;;;14.37;100;99072.38;;;;
2021/08/12 02:20:05;;;;;;;8.5;5.9;;;;;;;14.03;100;99083.98;;;;
2021/08/12 02:30:04;;;;;;;10.4;5;;;;;;;13.99;100;99077.61;;;;
2021/08/12 02:40:04;;;;;;;6.8;4.1;;;;;;;14.02;100;99078.91;;;;
2021/08/12 02:50:03;;;;;;;7.9;5.1;;;;;;;13.9;100;99084.94;;;;
2021/08/12 03:00:02;;;;;;;7.8;4.3;;;;;;;13.71;100;99087.12;;;;
2021/08/12 03:10:01;;;;;;;7.4;4.5;;;;;;;13.76;100;99089.69;;;;
2021/08/12 03:20:00;;;;;;;11.1;6.5;;;;;;;13.8;100;99092.56;;;;
2021/08/12 03:30:00;;;;;;;10.1;5.4;;;;;;;13.79;100;99094.47;;;;
2021/08/12 03:39:59;;;;;;;7;4.4;;;;;;;13.82;100;99098.45;;;;
2021/08/12 03:49:58;;;;;;;8.8;4.7;;;;;;;13.86;100;99105.64;;;;
2021/08/12 03:59:57;;;;;;;6.9;5.3;;;;;;;13.94;100;99117.62;;;;
2021/08/12 04:09:56;;;;;;;9.7;6.7;;;;;;;14.08;100;99126.41;;;;
2021/08/12 04:19:56;;;;;;;8.6;5.4;;;;;;;14.26;100;99129.94;;;;
2021/08/12 04:29:55;;;;;;;8.1;4.4;;;;;;;14.44;100;99134.27;;;;
2021/08/12 04:39:54;;;;;;;9.2;4.6;;;;;;;14.74;100;99133.31;;;;
2021/08/12 04:49:54;;;;;;;10.5;6.4;;;;;;;15.13;100;99142.34;;;;
2021/08/12 04:59:53;;;;;;;11.2;4.6;;;;;;;15.42;100;99155.97;;;;
2021/08/12 05:09:52;;;;;;;7.1;4.6;;;;;;;15.44;100;99170.05;;;;
2021/08/12 05:19:52;;;;;;;10.3;4.9;;;;;;;15.9;100;99177.37;;;;
2021/08/12 05:29:51;;;;;;;9.4;5.2;;;;;;;16.16;100;99174.52;;;;
2021/08/12 05:39:51;;;;;;;8;4.8;;;;;;;16.41;100;99177.07;;;;
2021/08/12 05:49:50;;;;;;;7.7;5.6;;;;;;;16.73;100;99175.55;;;;
2021/08/12 05:59:50;;;;;;;9.3;6.3;;;;;;;17.19;100;99179.92;;;;
2021/08/12 06:09:49;;;;;;;11.3;6.4;;;;;;;17.48;100;99189.88;;;;
2021/08/12 06:19:49;;;;;;;12.6;7.5;;;;;;;17.69;100;99193.35;;;;
2021/08/12 06:29:49;;;;;;;9.8;7.3;;;;;;;17.72;100;99202.77;;;;
2021/08/12 06:39:49;;;;;;;14.2;8.9;;;;;;;18.33;100;99196.16;;;;
2021/08/12 06:49:48;;;;;;;15.7;7.3;;;;;;;18.69;100;99194.53;;;;
2021/08/12 06:59:48;;;;;;;10.1;6.9;;;;;;;18.96;100;99201.94;;;;
2021/08/12 07:09:48;;;;;;;10.9;7.5;;;;;;;19.25;100;99206.27;;;;
2021/08/12 07:19:48;;;;;;;8.6;6.3;;;;;;;19.79;100;99214.72;;;;
2021/08/12 07:29:48;;;;;;;12.8;7;;;;;;;19.71;100;99218.45;;;;
2021/08/12 07:39:48;;;;;;;9.6;6.6;;;;;;;20.23;100;99227.16;;;;
2021/08/12 07:49:48;;;;;;;9.3;4.9;;;;;;;20.39;100;99224.41;;;;
2021/08/12 07:59:48;;;;;;;7.9;4.8;;;;;;;20.69;100;99227.44;;;;
2021/08/12 08:09:48;;;;;;;6.7;3.8;;;;;;;20.9;100;99239.63;;;;
2021/08/12 08:19:48;;;;;;;6.7;4.2;;;;;;;21.32;100;99244.41;;;;
2021/08/12 08:29:49;;;;;;;5.3;3.4;;;;;;;21.47;100;99252.56;;;;
2021/08/12 08:39:49;;;;;;;5.6;2.5;;;;;;;21.78;99.25977;99259.78;;;;
2021/08/12 08:49:49;;;;;;;6.5;3;;;;;;;22.14;83.7207;99246.7;;;;
2021/08/12 08:59:50;;;;;;;8.1;4.3;;;;;;;22.73;86.33203;99246.84;;;;
2021/08/12 09:09:50;;;;;;;22.6;4.5;;;;;;;23.12;85.51367;99249.3;;;;
2021/08/12 09:19:50;;;;;;;18;4.2;;;;;;;23.52;81.56543;99254.89;;;;
2021/08/12 09:29:51;;;;;;;5.2;3.4;;;;;;;24.07;80.75977;99264.06;;;;
2021/08/12 09:39:52;;;;;;;9.7;4.6;;;;;;;24.28;76.72461;99263.48;;;;
2021/08/12 09:49:53;;;;;;;6.6;3.6;;;;;;;23.95;77.40137;99272.63;;;;
2021/08/12 09:59:53;;;;;;;6.5;3.7;;;;;;;23.64;80.63672;99260.11;;;;
2021/08/12 10:09:53;;;;;;;7.5;3.6;;;;;;;24.2;79.27051;99270.09;;;;
2021/08/12 10:19:54;;;;;;;7.6;2.7;;;;;;;23.83;76.61426;99257.17;;;;
2021/08/12 10:29:55;;;;;;;5.5;3.4;;;;;;;24.66;74.64551;99260.2;;;;
2021/08/12 10:39:55;;;;;;;8.1;3.9;;;;;;;24.46;74.94922;99267.16;;;;
2021/08/12 10:49:56;;;;;;;7.4;3.7;;;;;;;23.52;78.87402;99261.19;;;;
2021/08/12 10:59:56;;;;;;;8.4;4.9;;;;;;;23.44;80.46094;99258.72;;;;
2021/08/12 11:10:00;;;;;;;6.8;3.7;;;;;;;23.86;74.9082;99252.86;;;;
2021/08/12 11:19:58;;;;;;;6.5;4;;;;;;;23.49;78.4502;99255.65;;;;
2021/08/12 11:29:58;;;;;;;5.2;3.1;;;;;;;23.13;82.00488;99253.61;;;;
2021/08/12 11:39:58;;;;;;;7;4.1;;;;;;;23.74;81.15234;99250.41;;;;
2021/08/12 11:49:59;;;;;;;5.5;3;;;;;;;23.92;77.35059;99249.38;;;;
2021/08/12 11:59:59;;;;;;;8.1;3.3;;;;;;;24.25;72.39844;99250.47;;;;
2021/08/12 12:10:00;;;;;;;6.7;3.9;;;;;;;24.75;72.47949;99241.34;;;;
2021/08/12 12:20:01;;;;;;;5.3;3.9;;;;;;;24.57;73.40625;99232.2;;;;
2021/08/12 12:30:01;;;;;;;7.6;3.4;;;;;;;24.87;64.97266;99218.98;;;;
2021/08/12 12:40:02;;;;;;;6.8;3.5;;;;;;;24.71;66.67969;99217.7;;;;
2021/08/12 12:50:03;;;;;;;6.2;3.7;;;;;;;24.72;58.05762;99211.78;;;;
2021/08/12 13:00:03;;;;;;;6;3.9;;;;;;;24.92;57.75391;99215.08;;;;
2021/08/12 13:10:04;;;;;;;6.6;3.4;;;;;;;24.94;61.31934;99207.98;;;;
2021/08/12 13:20:05;;;;;;;7.4;3.3;;;;;;;25.36;63.67383;99203.78;;;;
2021/08/12 13:30:05;;;;;;;5.9;3.4;;;;;;;24.94;65.68555;99196.96;;;;
2021/08/12 13:40:06;;;;;;;6.6;4.8;;;;;;;24.28;67.10742;99191.84;;;;
2021/08/12 13:50:07;;;;;;;6.2;3.9;;;;;;;24.82;66.81445;99186.23;;;;
2021/08/12 14:00:07;;;;;;;10.1;4.6;;;;;;;24.78;64.56348;99185.42;;;;
2021/08/12 14:10:08;;;;;;;7.3;3.9;;;;;;;24.87;65.8623;99185.9;;;;
2021/08/12 14:20:09;;;;;;;8.4;4.5;;;;;;;25.17;65.76465;99187.56;;;;
2021/08/12 14:30:09;;;;;;;10.9;5;;;;;;;25.83;64.2334;99184.14;;;;
2021/08/12 14:40:10;;;;;;;9.1;4.6;;;;;;;26.58;60.28516;99193.17;;;;
2021/08/12 14:50:11;;;;;;;8.8;4.9;;;;;;;26.24;58.57031;99200.35;;;;
2021/08/12 15:00:11;;;;;;;6.9;3.5;;;;;;;27.03;56.18652;99190.66;;;;
2021/08/12 15:10:12;;;;;;;5.9;3.1;;;;;;;26.71;57.65332;99190.75;;;;
2021/08/12 15:20:13;;;;;;;11.6;4;;;;;;;26.72;56.56152;99173.77;;;;
2021/08/12 15:30:15;;;;;;;9.8;4.3;;;;;;;27.97;64.01855;99177.39;;;;
2021/08/12 15:40:15;;;;;;;7.6;3.5;;;;;;;30.54;43.83301;99177.09;;;;
2021/08/12 15:50:16;;;;;;;8.4;4;;;;;;;29.82;48.1416;99171.94;;;;
2021/08/12 16:00:18;;;;;;;5.6;3.5;;;;;;;29.54;45.48535;99177.94;;;;
2021/08/12 16:10:19;;;;;;;7.2;4.3;;;;;;;30.33;44.24219;99173.48;;;;
2021/08/12 16:20:21;;;;;;;10.5;4;;;;;;;30.43;44.12109;99172.52;;;;
2021/08/12 16:30:22;;;;;;;6.2;3.6;;;;;;;28.02;48.49414;99174.16;;;;
2021/08/12 16:40:23;;;;;;;43.2;18.4;;;;;;;26.6;53.38867;99178.92;;;;
2021/08/12 16:50:24;;;;;;;9.7;6.7;;;;;;;25.31;60.53711;99168.28;;;;
2021/08/12 17:00:25;;;;;;;6.2;4.4;;;;;;;24.55;69.36621;99168.38;;;;
2021/08/12 17:10:26;;;;;;;11.7;3.3;;;;;;;23.74;77.89941;99165.07;;;;
2021/08/12 17:20:27;;;;;;;6.7;3.4;;;;;;;23.35;84.44531;99157.22;;;;
2021/08/12 17:30:27;;;;;;;7.8;4.6;;;;;;;23.28;89.53809;99159.1;;;;
2021/08/12 17:40:27;;;;;;;8.2;4.8;;;;;;;22.42;87.4502;99153.75;;;;
2021/08/12 17:50:28;;;;;;;11;5.5;;;;;;;21.51;94.72852;99165.65;;;;
2021/08/12 18:00:28;;;;;;;9.1;4;;;;;;;20.68;100;99158.16;;;;
2021/08/12 18:10:29;;;;;;;8;5.9;;;;;;;19.97;100;99167.51;;;;
2021/08/12 18:20:28;;;;;;;6.9;4.5;;;;;;;19.35;100;99172.95;;;;
2021/08/12 18:30:28;;;;;;;6.8;4.7;;;;;;;18.92;100;99173.73;;;;
2021/08/12 18:40:28;;;;;;;7.9;5;;;;;;;18.44;100;99188.3;;;;
2021/08/12 18:50:27;;;;;;;11.3;6.5;;;;;;;18.03;100;99183.92;;;;
2021/08/12 19:00:27;;;;;;;10.4;8.6;;;;;;;17.63;100;99180.28;;;;
2021/08/12 19:10:27;;;;;;;15.5;6.8;;;;;;;17.34;100;99192.12;;;;
2021/08/12 19:20:26;;;;;;;16.7;8.1;;;;;;;16.99;100;99208.8;;;;
2021/08/12 19:30:28;;;;;;;8.5;5.4;;;;;;;16.69;100;99204.59;;;;
2021/08/12 19:40:26;;;;;;;8.5;6.1;;;;;;;16.41;100;99211.64;;;;
2021/08/12 19:50:25;;;;;;;9.9;5.5;;;;;;;16.18;100;99218.48;;;;
2021/08/12 20:00:25;;;;;;;7.3;5.5;;;;;;;16.02;100;99218.27;;;;
2021/08/12 20:10:24;;;;;;;8.7;6;;;;;;;15.78;100;99235.16;;;;
2021/08/12 20:20:23;;;;;;;9.7;7;;;;;;;15.61;100;99235.22;;;;
2021/08/12 20:30:23;;;;;;;7.3;6.2;;;;;;;15.44;100;99229.8;;;;
2021/08/12 20:40:22;;;;;;;13.5;8.6;;;;;;;15.32;100;99233.17;;;;
2021/08/12 20:50:21;;;;;;;13.7;7.4;;;;;;;15.25;100;99223.92;;;;
2021/08/12 21:00:21;;;;;;;10.8;7;;;;;;;15.05;100;99228.91;;;;
2021/08/12 21:10:20;;;;;;;14.8;6.6;;;;;;;14.88;100;99234.34;;;;
2021/08/12 21:20:19;;;;;;;9.3;7.3;;;;;;;14.63;100;99218.85;;;;
2021/08/12 21:30:19;;;;;;;13.4;7.2;;;;;;;14.55;100;99225.06;;;;
2021/08/12 21:40:18;;;;;;;14.1;7.7;;;;;;;14.48;100;99213.88;;;;
2021/08/12 21:50:17;;;;;;;9.6;7.5;;;;;;;14.39;100;99215.8;;;;
2021/08/12 22:00:17;;;;;;;11.9;9.6;;;;;;;14.27;100;99229.13;;;;
2021/08/12 22:10:16;;;;;;;13.9;9.9;;;;;;;14.06;100;99237.05;;;;
2021/08/12 22:20:15;;;;;;;11.1;7.3;;;;;;;13.96;100;99240.84;;;;
2021/08/12 22:30:14;;;;;;;13.8;10.5;;;;;;;13.8;100;99249.7;;;;
2021/08/12 22:40:14;;;;;;;12.9;10.6;;;;;;;13.72;100;99247.75;;;;
2021/08/12 22:50:13;;;;;;;10.5;9.1;;;;;;;13.61;100;99244.5;;;;
2021/08/12 23:00:12;;;;;;;12.2;9.4;;;;;;;13.52;100;99255.31;;;;
2021/08/12 23:10:11;;;;;;;11.5;9.9;;;;;;;13.46;100;99255.75;;;;
2021/08/12 23:20:10;;;;;;;14.2;9;;;;;;;13.31;100;99251.52;;;;
2021/08/12 23:30:09;;;;;;;12.5;9.3;;;;;;;13.27;100;99247.81;;;;
2021/08/12 23:40:09;;;;;;;14.9;9.9;;;;;;;13.14;100;99247.89;;;;
2021/08/12 23:50:08;;;;;;;15.7;11.1;;;;;;;13.03;100;99245.4;;;;
